Alpine, Colorado
Current Conditions -  °F | °C
As of 9:30 PM on Tuesday 21 Oct 2014 (Local Time) from KRCV Reporting Station
Scattered Clouds Scattered Clouds  
Wind Chill:   Ceiling: Unl
Heat Index:   Visibility: 10mi
Dew Point:   Wind: 10mph
Humidity: 60%   Direction: 280°W
Pressure: 30.15"   Gusts: NA
Location:  37.6617°N, 106.617°W
Report Text: KRCV 220330Z AUTO 28009KT 10SM SCT095 10/02 A3015 RMK AO2 T00950021
Loading
Personal Weather Stations






























Interactive Weather Map
Tropical Storm Tracking
New forecast layout! Learn more

10-Day Weather Forecast

Advertisements
Track Severe Weather on mobile